Time;durP1;ratioP1;P1;durP2;ratioP2;P2;SDS_P1;SDS_P2;PMS_P1;PMS_P2;Temp;Humidity;BMP_temperature;BMP_pressure;BME280_temperature;BME280_humidity;BME280_pressure;Samples;Min_cycle;Max_cycle;Signal;HPM_P1;HPM_P2
2023/07/18 00:00:27;;;;;;;1999.90;999.90;;;12.90;99.90;;;;;;5045079;28;20036;-69
2023/07/18 00:02:53;;;;;;;1999.90;999.90;;;12.90;99.90;;;;;;5024669;28;20136;-69
2023/07/18 00:05:20;;;;;;;1999.90;999.90;;;12.90;99.90;;;;;;5029706;28;20120;-69
2023/07/18 00:07:47;;;;;;;1999.90;999.90;;;12.90;99.90;;;;;;5049421;28;20053;-69
2023/07/18 00:10:13;;;;;;;1999.90;999.90;;;12.80;99.90;;;;;;5039321;28;20051;-69
2023/07/18 00:12:40;;;;;;;1999.90;999.90;;;12.80;99.90;;;;;;5045261;28;20040;-69
2023/07/18 00:15:06;;;;;;;1999.90;999.90;;;12.80;99.90;;;;;;5045702;28;20041;-69
2023/07/18 00:17:33;;;;;;;1999.90;999.90;;;12.70;99.90;;;;;;5046284;28;20078;-69
2023/07/18 00:20:00;;;;;;;1999.90;999.90;;;12.70;99.90;;;;;;5048635;28;20045;-69
2023/07/18 00:22:26;;;;;;;1999.90;999.90;;;12.60;99.90;;;;;;5045403;28;20041;-69
2023/07/18 00:24:51;;;;;;;1999.90;999.90;;;12.70;99.90;;;;;;5045483;28;20045;-69
2023/07/18 00:27:17;;;;;;;1999.90;999.90;;;12.70;99.90;;;;;;5046007;28;20496;-69
2023/07/18 00:29:43;;;;;;;1999.90;999.90;;;12.60;99.90;;;;;;5043580;28;20056;-69
2023/07/18 00:32:09;;;;;;;1999.90;999.90;;;12.60;99.90;;;;;;5031390;28;20051;-69
2023/07/18 00:34:35;;;;;;;1999.90;999.90;;;12.50;99.90;;;;;;5046253;28;20560;-69
2023/07/18 00:37:01;;;;;;;1999.90;999.90;;;12.50;99.90;;;;;;5046107;28;20068;-69
2023/07/18 00:39:27;;;;;;;1999.90;999.90;;;12.50;99.90;;;;;;5033701;28;20524;-69
2023/07/18 00:41:52;;;;;;;1999.90;999.90;;;12.40;99.90;;;;;;5042571;28;20041;-69
2023/07/18 00:44:19;;;;;;;1999.90;999.90;;;12.50;99.90;;;;;;5046494;28;20045;-69
2023/07/18 00:46:45;;;;;;;1999.90;999.90;;;12.40;99.90;;;;;;5060227;28;20515;-69
2023/07/18 00:49:12;;;;;;;1999.90;999.90;;;12.50;99.90;;;;;;5031675;28;20045;-69
2023/07/18 00:51:37;;;;;;;1999.90;999.90;;;12.50;99.90;;;;;;5045655;28;20055;-69
2023/07/18 00:54:03;;;;;;;1999.90;999.90;;;12.50;99.90;;;;;;5033510;28;20393;-69
2023/07/18 00:56:29;;;;;;;1999.90;999.90;;;12.50;99.90;;;;;;5048454;28;20107;-69
2023/07/18 00:58:55;;;;;;;1999.90;999.90;;;12.50;99.90;;;;;;5032040;28;20064;-69
2023/07/18 01:01:21;;;;;;;1999.90;999.90;;;12.50;99.90;;;;;;5039884;28;20049;-69
2023/07/18 01:03:46;;;;;;;1999.90;999.90;;;12.50;99.90;;;;;;5041449;28;20048;-69
2023/07/18 01:06:12;;;;;;;1999.90;999.90;;;12.50;99.90;;;;;;5049040;28;20053;-69
2023/07/18 01:08:39;;;;;;;1999.90;999.90;;;12.50;99.90;;;;;;5053107;28;20497;-69
2023/07/18 01:11:06;;;;;;;1999.90;999.90;;;12.50;99.90;;;;;;5048234;28;20040;-69
2023/07/18 01:13:33;;;;;;;1999.90;999.90;;;12.60;99.90;;;;;;5030103;28;20045;-69
2023/07/18 01:15:59;;;;;;;1999.90;999.90;;;12.60;99.90;;;;;;5046405;28;20060;-69
2023/07/18 01:18:25;;;;;;;1999.90;999.90;;;12.60;99.90;;;;;;5039175;28;20033;-69
2023/07/18 01:20:51;;;;;;;1999.90;999.90;;;12.60;99.90;;;;;;5049365;28;20045;-69
2023/07/18 01:23:17;;;;;;;1999.90;999.90;;;12.60;99.90;;;;;;5050579;28;20439;-68
2023/07/18 01:25:42;;;;;;;1999.90;999.90;;;12.60;99.90;;;;;;5038260;28;20409;-68
2023/07/18 01:28:10;;;;;;;1999.90;999.90;;;12.60;99.90;;;;;;5048425;28;20379;-69
2023/07/18 01:30:36;;;;;;;1999.90;999.90;;;12.60;99.90;;;;;;5049300;28;20045;-69
2023/07/18 01:33:02;;;;;;;1999.90;999.90;;;12.60;99.90;;;;;;5035660;28;20392;-68
2023/07/18 01:35:28;;;;;;;1999.90;999.90;;;12.60;99.90;;;;;;5047395;28;20083;-69
2023/07/18 01:37:55;;;;;;;1999.90;999.90;;;12.50;99.90;;;;;;5039807;28;20073;-69
2023/07/18 01:40:22;;;;;;;1999.90;999.90;;;12.60;99.90;;;;;;5019179;28;20044;-68
2023/07/18 01:42:51;;;;;;;1999.90;999.90;;;12.50;99.90;;;;;;5047322;28;20396;-68
2023/07/18 01:45:22;;;;;;;1999.90;999.90;;;12.50;99.90;;;;;;5030487;28;20469;-68
2023/07/18 01:47:48;;;;;;;1999.90;999.90;;;12.50;99.90;;;;;;5047892;28;20049;-68
2023/07/18 01:50:14;;;;;;;1999.90;999.90;;;12.40;99.90;;;;;;5032419;28;20444;-68
2023/07/18 01:52:40;;;;;;;1999.90;999.90;;;12.40;99.90;;;;;;5047518;28;20049;-69
2023/07/18 01:55:06;;;;;;;1999.90;999.90;;;12.40;99.90;;;;;;5046702;28;20037;-69
2023/07/18 01:57:43;;;;;;;1999.90;999.90;;;12.40;99.90;;;;;;5048567;28;20052;-69
2023/07/18 02:00:11;;;;;;;1999.90;999.90;;;12.40;99.90;;;;;;5030998;28;20484;-68
2023/07/18 02:02:40;;;;;;;1999.90;999.90;;;12.30;99.90;;;;;;5039367;28;20049;-69
2023/07/18 02:05:07;;;;;;;1999.90;999.90;;;12.30;99.90;;;;;;5048904;28;20134;-69
2023/07/18 02:07:33;;;;;;;1999.90;999.90;;;12.30;99.90;;;;;;5048376;28;20071;-69
2023/07/18 02:10:00;;;;;;;1999.90;999.90;;;12.30;99.90;;;;;;5034688;28;20052;-68
2023/07/18 02:12:26;;;;;;;1999.90;999.90;;;12.20;99.90;;;;;;5043028;28;20094;-69
2023/07/18 02:14:52;;;;;;;1999.90;999.90;;;12.20;99.90;;;;;;5043341;28;20124;-69
2023/07/18 02:17:17;;;;;;;1999.90;999.90;;;12.20;99.90;;;;;;5028467;28;20239;-68
2023/07/18 02:19:43;;;;;;;1999.90;999.90;;;12.30;99.90;;;;;;5052853;28;20041;-69
2023/07/18 02:22:09;;;;;;;1999.90;999.90;;;12.30;99.90;;;;;;5048519;28;20035;-68
2023/07/18 02:24:34;;;;;;;1999.90;999.90;;;12.30;99.90;;;;;;5039179;28;20037;-68
2023/07/18 02:27:00;;;;;;;1999.90;999.90;;;12.40;99.90;;;;;;5034576;28;20072;-69
2023/07/18 02:29:26;;;;;;;1999.90;999.90;;;12.40;99.90;;;;;;5024377;28;20124;-69
2023/07/18 02:31:52;;;;;;;1999.90;999.90;;;12.40;99.90;;;;;;5035970;28;20090;-69
2023/07/18 02:34:18;;;;;;;1999.90;999.90;;;12.40;99.90;;;;;;5032955;28;20083;-69
2023/07/18 02:36:44;;;;;;;1999.90;999.90;;;12.50;99.90;;;;;;5034765;28;20093;-68
2023/07/18 02:39:10;;;;;;;1999.90;999.90;;;12.50;99.90;;;;;;5035081;28;20049;-69
2023/07/18 02:41:37;;;;;;;1999.90;999.90;;;12.50;99.90;;;;;;5034119;28;20037;-69
2023/07/18 02:44:04;;;;;;;1999.90;999.90;;;12.50;99.90;;;;;;5032488;28;20041;-69
2023/07/18 02:46:29;;;;;;;1999.90;999.90;;;12.50;99.90;;;;;;5045300;28;20044;-68
2023/07/18 02:48:55;;;;;;;1999.90;999.90;;;12.50;99.90;;;;;;5048391;28;20041;-69
2023/07/18 02:51:20;;;;;;;1999.90;999.90;;;12.50;99.90;;;;;;5047328;28;20055;-69
2023/07/18 02:53:48;;;;;;;1999.90;999.90;;;12.50;99.90;;;;;;5014124;28;20112;-69
2023/07/18 02:56:14;;;;;;;1999.90;999.90;;;12.50;99.90;;;;;;5046777;28;20044;-69
2023/07/18 02:58:41;;;;;;;1999.90;999.90;;;12.50;99.90;;;;;;5019403;28;20064;-69
2023/07/18 03:01:07;;;;;;;1999.90;999.90;;;12.40;99.90;;;;;;5047761;28;20045;-69
2023/07/18 03:03:34;;;;;;;1999.90;999.90;;;12.40;99.90;;;;;;5045017;28;20092;-69
2023/07/18 03:06:00;;;;;;;1999.90;999.90;;;12.40;99.90;;;;;;5038052;28;20131;-69
2023/07/18 03:08:27;;;;;;;1999.90;999.90;;;12.40;99.90;;;;;;5045526;28;20572;-69
2023/07/18 03:10:53;;;;;;;1999.90;999.90;;;12.40;99.90;;;;;;5046344;28;20045;-69
2023/07/18 03:13:19;;;;;;;1999.90;999.90;;;12.40;99.90;;;;;;5046122;28;20044;-69
2023/07/18 03:15:44;;;;;;;1999.90;999.90;;;12.40;99.90;;;;;;5026365;28;20037;-69
2023/07/18 03:18:10;;;;;;;1999.90;999.90;;;12.40;99.90;;;;;;5037011;28;20041;-69
2023/07/18 03:20:38;;;;;;;1999.90;999.90;;;12.40;99.90;;;;;;5031787;28;20382;-69
2023/07/18 03:23:04;;;;;;;1999.90;999.90;;;12.40;99.90;;;;;;5046362;28;20421;-69
2023/07/18 03:25:30;;;;;;;1999.90;999.90;;;12.40;99.90;;;;;;5033456;28;20048;-69
2023/07/18 03:27:56;;;;;;;1999.90;999.90;;;12.40;99.90;;;;;;5030824;28;20043;-69
2023/07/18 03:30:22;;;;;;;1999.90;999.90;;;12.40;99.90;;;;;;5037486;28;20048;-69
2023/07/18 03:32:51;;;;;;;1999.90;999.90;;;12.40;99.90;;;;;;5045534;28;20053;-69
2023/07/18 03:35:17;;;;;;;1999.90;999.90;;;12.40;99.90;;;;;;5047473;28;20051;-69
2023/07/18 03:37:43;;;;;;;1999.90;999.90;;;12.40;99.90;;;;;;5040158;28;20064;-69
2023/07/18 03:40:10;;;;;;;1999.90;999.90;;;12.50;99.90;;;;;;5047427;28;20427;-69
2023/07/18 03:42:36;;;;;;;1999.90;999.90;;;12.50;99.90;;;;;;5041180;28;20047;-69
2023/07/18 03:45:04;;;;;;;1999.90;999.90;;;12.50;99.90;;;;;;5042207;28;20051;-69
2023/07/18 03:47:31;;;;;;;1999.90;999.90;;;12.50;99.90;;;;;;5055131;28;20049;-69
2023/07/18 03:49:57;;;;;;;1999.90;999.90;;;12.50;99.90;;;;;;5046012;28;20052;-69
2023/07/18 03:52:23;;;;;;;1999.90;999.90;;;12.50;99.90;;;;;;5027327;28;20820;-69
2023/07/18 03:54:49;;;;;;;1999.90;999.90;;;12.50;99.90;;;;;;5029523;28;20047;-68
2023/07/18 03:57:14;;;;;;;1999.90;999.90;;;12.50;99.90;;;;;;5045633;28;20044;-69
2023/07/18 03:59:40;;;;;;;1999.90;999.90;;;12.50;99.90;;;;;;5013181;28;20064;-69
2023/07/18 04:02:06;;;;;;;1999.90;999.90;;;12.50;99.90;;;;;;5045666;28;20473;-69
2023/07/18 04:04:31;;;;;;;1999.90;999.90;;;12.50;99.90;;;;;;5030805;28;20513;-69
2023/07/18 04:06:57;;;;;;;1999.90;999.90;;;12.60;99.90;;;;;;5046150;28;20057;-68
2023/07/18 04:09:22;;;;;;;1999.90;999.90;;;12.60;99.90;;;;;;5043979;28;20072;-69
2023/07/18 04:11:48;;;;;;;1999.90;999.90;;;12.60;99.90;;;;;;5045857;28;20131;-69
2023/07/18 04:14:14;;;;;;;1999.90;999.90;;;12.70;99.90;;;;;;5051622;28;20038;-69
2023/07/18 04:16:40;;;;;;;1999.90;999.90;;;12.70;99.90;;;;;;5042166;28;20036;-69
2023/07/18 04:19:07;;;;;;;1999.90;999.90;;;12.70;99.90;;;;;;5046092;28;20413;-69
2023/07/18 04:21:34;;;;;;;1999.90;999.90;;;12.80;99.90;;;;;;5036134;28;20132;-69
2023/07/18 04:23:59;;;;;;;1999.90;999.90;;;12.80;99.90;;;;;;5040171;28;20045;-69
2023/07/18 04:26:25;;;;;;;1999.90;999.90;;;12.90;99.90;;;;;;5035851;28;20508;-69
2023/07/18 04:28:51;;;;;;;1999.90;999.90;;;12.90;99.90;;;;;;5044331;28;20122;-69
2023/07/18 04:31:17;;;;;;;1999.90;999.90;;;12.90;99.90;;;;;;5045475;28;20048;-69
2023/07/18 04:33:42;;;;;;;1999.90;999.90;;;13.00;99.90;;;;;;5054786;28;20393;-69
2023/07/18 04:36:08;;;;;;;1999.90;999.90;;;13.00;99.90;;;;;;5044760;28;20041;-69
2023/07/18 04:38:35;;;;;;;1999.90;999.90;;;13.10;99.90;;;;;;5046054;28;20119;-69
2023/07/18 04:41:02;;;;;;;1999.90;999.90;;;13.20;99.90;;;;;;5043066;28;20045;-69
2023/07/18 04:43:28;;;;;;;1999.90;999.90;;;13.20;99.90;;;;;;5043282;28;20083;-69
2023/07/18 04:45:54;;;;;;;1999.90;999.90;;;13.40;99.90;;;;;;5045739;28;20133;-69
2023/07/18 04:48:20;;;;;;;1999.90;999.90;;;13.40;99.90;;;;;;5048895;28;20128;-69
2023/07/18 04:50:50;;;;;;;1999.90;999.90;;;13.50;99.90;;;;;;5047336;28;20048;-69
2023/07/18 04:53:16;;;;;;;1999.90;999.90;;;13.50;99.90;;;;;;5044675;28;20049;-69
2023/07/18 04:55:41;;;;;;;1999.90;999.90;;;13.60;99.90;;;;;;5045605;28;20044;-69
2023/07/18 04:58:07;;;;;;;1999.90;999.90;;;13.70;99.90;;;;;;5045675;28;20029;-69
2023/07/18 05:00:34;;;;;;;1999.90;999.90;;;13.70;99.90;;;;;;5046026;28;20459;-69
2023/07/18 05:03:00;;;;;;;1999.90;999.90;;;13.80;99.90;;;;;;5052686;28;20064;-69
2023/07/18 05:05:27;;;;;;;1999.90;999.90;;;13.80;99.90;;;;;;5051026;28;20067;-69
2023/07/18 05:07:54;;;;;;;1999.90;999.90;;;13.90;99.90;;;;;;5056900;28;20408;-69
2023/07/18 05:10:21;;;;;;;1999.90;999.90;;;13.90;99.90;;;;;;5044726;28;20044;-69
2023/07/18 05:12:47;;;;;;;1999.90;999.90;;;14.00;99.90;;;;;;5046101;28;20515;-69
2023/07/18 05:15:13;;;;;;;1999.90;999.90;;;14.00;99.90;;;;;;5045113;28;20037;-69
2023/07/18 05:17:38;;;;;;;1999.90;999.90;;;14.10;99.90;;;;;;5042626;28;20832;-69
2023/07/18 05:20:05;;;;;;;1999.90;999.90;;;14.30;99.90;;;;;;5045038;28;20036;-69
2023/07/18 05:22:30;;;;;;;1999.90;999.90;;;14.40;99.90;;;;;;5045591;28;20416;-69
2023/07/18 05:24:56;;;;;;;1999.90;999.90;;;14.50;99.90;;;;;;5034468;28;20042;-69
2023/07/18 05:27:22;;;;;;;1999.90;999.90;;;14.60;99.90;;;;;;5041293;28;20469;-69
2023/07/18 05:29:48;;;;;;;1999.90;999.90;;;14.70;99.90;;;;;;5024761;28;20048;-69
2023/07/18 05:32:14;;;;;;;1999.90;999.90;;;14.80;99.90;;;;;;5053806;28;20049;-69
2023/07/18 05:34:39;;;;;;;1999.90;999.90;;;14.80;99.90;;;;;;5049053;28;20037;-69
2023/07/18 05:37:05;;;;;;;1999.90;999.90;;;14.90;99.90;;;;;;5041081;28;20037;-69
2023/07/18 05:39:31;;;;;;;1999.90;999.90;;;14.90;99.90;;;;;;5043970;28;20044;-70
2023/07/18 05:41:57;;;;;;;1999.90;999.90;;;14.90;99.90;;;;;;5048858;28;20496;-69
2023/07/18 05:44:23;;;;;;;1999.90;999.90;;;14.90;99.90;;;;;;5027167;28;20086;-70
2023/07/18 05:46:49;;;;;;;1999.90;999.90;;;15.00;99.90;;;;;;5049812;28;20503;-70
2023/07/18 05:49:15;;;;;;;1999.90;999.90;;;15.00;99.90;;;;;;5040883;28;20045;-69
2023/07/18 05:51:40;;;;;;;1999.90;999.90;;;15.00;99.90;;;;;;5046000;28;20034;-69
2023/07/18 05:54:06;;;;;;;1999.90;999.90;;;15.10;99.90;;;;;;5042130;28;20037;-69
2023/07/18 05:56:32;;;;;;;1999.90;999.90;;;15.30;99.90;;;;;;5042326;28;20146;-69
2023/07/18 05:59:00;;;;;;;1999.90;999.90;;;15.40;99.90;;;;;;5042067;28;20397;-70
2023/07/18 06:01:26;;;;;;;1999.90;999.90;;;15.60;99.90;;;;;;5037964;28;20466;-69
2023/07/18 06:03:51;;;;;;;1999.90;999.90;;;15.80;99.90;;;;;;5047191;28;20045;-69
2023/07/18 06:06:17;;;;;;;1999.90;999.90;;;15.80;99.90;;;;;;5046366;28;20195;-69
2023/07/18 06:08:42;;;;;;;1999.90;999.90;;;15.90;99.90;;;;;;5025742;28;20083;-69
2023/07/18 06:11:08;;;;;;;1999.90;999.90;;;15.90;99.90;;;;;;5048077;28;20110;-70
2023/07/18 06:13:33;;;;;;;1999.90;999.90;;;15.90;99.90;;;;;;5041504;28;20051;-70
2023/07/18 06:15:59;;;;;;;1999.90;999.90;;;16.00;99.90;;;;;;5039348;28;20052;-70
2023/07/18 06:18:25;;;;;;;1999.90;999.90;;;16.10;99.90;;;;;;5044556;28;20094;-70
2023/07/18 06:20:50;;;;;;;1999.90;999.90;;;16.20;99.90;;;;;;5048471;28;20048;-70
2023/07/18 06:23:16;;;;;;;1999.90;999.90;;;16.50;99.90;;;;;;5045723;28;20060;-69
2023/07/18 06:25:42;;;;;;;1999.90;999.90;;;16.90;99.90;;;;;;5044750;28;20038;-69
2023/07/18 06:28:07;;;;;;;1999.90;999.90;;;17.20;99.90;;;;;;5040414;28;20452;-69
2023/07/18 06:30:33;;;;;;;1999.90;999.90;;;17.50;99.90;;;;;;5046369;28;20127;-69
2023/07/18 06:32:59;;;;;;;1999.90;999.90;;;17.70;99.90;;;;;;5046760;28;20107;-70
2023/07/18 06:35:25;;;;;;;1999.90;999.90;;;17.80;99.90;;;;;;5025118;28;20069;-69
2023/07/18 06:37:51;;;;;;;1999.90;999.90;;;17.80;99.90;;;;;;5028487;28;20527;-70
2023/07/18 06:40:17;;;;;;;1999.90;999.90;;;17.90;99.90;;;;;;5042847;28;20120;-70
2023/07/18 06:42:43;;;;;;;1999.90;999.90;;;18.50;99.90;;;;;;5044195;28;20051;-70
2023/07/18 06:45:09;;;;;;;1999.90;999.90;;;19.20;99.90;;;;;;5046595;28;20045;-70
2023/07/18 06:47:35;;;;;;;1999.90;999.90;;;19.70;99.90;;;;;;5030789;28;20040;-69
2023/07/18 06:50:01;;;;;;;1999.90;999.90;;;19.90;99.90;;;;;;5048157;28;20053;-70
2023/07/18 06:52:26;;;;;;;1999.90;999.90;;;19.60;99.90;;;;;;5030349;28;20049;-70
2023/07/18 06:54:54;;;;;;;1999.90;999.90;;;19.30;99.90;;;;;;5046539;28;20595;-69
2023/07/18 06:57:20;;;;;;;1999.90;999.90;;;19.40;99.90;;;;;;5045736;28;20098;-69
2023/07/18 06:59:45;;;;;;;1999.90;999.90;;;19.30;99.90;;;;;;5039217;28;20128;-69
2023/07/18 07:02:11;;;;;;;1999.90;999.90;;;19.20;99.90;;;;;;5038789;28;20041;-69
2023/07/18 07:04:39;;;;;;;1999.90;999.90;;;19.30;99.90;;;;;;5025734;28;20047;-69
2023/07/18 07:07:06;;;;;;;1999.90;999.90;;;19.30;99.90;;;;;;5046607;28;20139;-69
2023/07/18 07:09:33;;;;;;;1999.90;999.90;;;19.50;99.90;;;;;;5040833;28;20048;-70
2023/07/18 07:11:59;;;;;;;1999.90;999.90;;;20.00;99.90;;;;;;5036321;28;20379;-70
2023/07/18 07:14:25;;;;;;;1999.90;999.90;;;20.70;99.90;;;;;;5048124;28;20040;-70
2023/07/18 07:16:50;;;;;;;1999.90;999.90;;;21.00;99.90;;;;;;5024143;28;20052;-69
2023/07/18 07:19:16;;;;;;;1999.90;999.90;;;20.90;99.90;;;;;;5045774;28;20055;-70
2023/07/18 07:21:42;;;;;;;1999.90;999.90;;;21.30;99.90;;;;;;5039291;28;20033;-69
2023/07/18 07:24:08;;;;;;;1999.90;999.90;;;21.60;99.90;;;;;;5039091;28;20052;-70
2023/07/18 07:26:37;;;;;;;1999.90;999.90;;;21.90;99.90;;;;;;5039516;28;20106;-70
2023/07/18 07:29:03;;;;;;;190.05;180.75;;;21.90;99.90;;;;;;5041239;28;20048;-70
2023/07/18 07:31:29;;;;;;;180.32;171.55;;;22.30;99.90;;;;;;5044155;28;20098;-70
2023/07/18 07:33:55;;;;;;;216.57;206.50;;;22.10;99.90;;;;;;5045481;28;20041;-70
2023/07/18 07:36:21;;;;;;;358.80;340.88;;;21.80;99.90;;;;;;5027361;28;20037;-70
2023/07/18 07:38:46;;;;;;;333.45;317.35;;;22.20;99.90;;;;;;5046312;28;20060;-70
2023/07/18 07:41:12;;;;;;;374.05;355.10;;;22.70;99.90;;;;;;5045588;28;20511;-70
2023/07/18 07:43:38;;;;;;;235.07;224.15;;;23.40;99.90;;;;;;5039820;28;20045;-70
2023/07/18 07:46:04;;;;;;;90.65;85.85;;;24.00;99.90;;;;;;5028468;28;20041;-70
2023/07/18 07:48:29;;;;;;;109.53;104.22;;;24.20;99.90;;;;;;5043938;28;20548;-70
2023/07/18 07:50:58;;;;;;;94.57;89.45;;;23.70;99.90;;;;;;5043935;28;20151;-70
2023/07/18 07:53:23;;;;;;;95.82;90.97;;;22.80;99.90;;;;;;5041912;28;20049;-70
2023/07/18 07:55:49;;;;;;;103.22;98.03;;;22.00;99.90;;;;;;5045481;28;20044;-69
2023/07/18 07:58:15;;;;;;;108.25;102.80;;;21.80;99.90;;;;;;5028415;28;20144;-70
2023/07/18 08:00:41;;;;;;;102.50;97.13;;;21.50;99.90;;;;;;5053341;28;20413;-70
2023/07/18 08:03:07;;;;;;;117.40;111.63;;;21.30;99.90;;;;;;5026522;28;20068;-70
2023/07/18 08:05:32;;;;;;;112.57;107.53;;;21.20;99.90;;;;;;5038489;28;20474;-70
2023/07/18 08:07:58;;;;;;;105.93;100.50;;;21.20;99.90;;;;;;5037039;28;20049;-70
2023/07/18 08:10:24;;;;;;;110.00;104.80;;;21.30;99.90;;;;;;5038912;28;20041;-69
2023/07/18 08:12:50;;;;;;;122.07;116.38;;;21.30;99.90;;;;;;5038810;28;20155;-70
2023/07/18 08:15:15;;;;;;;116.47;110.70;;;21.40;99.90;;;;;;5040510;28;20124;-70
2023/07/18 08:17:41;;;;;;;119.90;114.20;;;21.50;99.90;;;;;;5051069;28;20457;-70
2023/07/18 08:20:08;;;;;;;111.32;106.18;;;21.50;99.90;;;;;;5030807;28;20079;-70
2023/07/18 08:22:34;;;;;;;111.88;106.78;;;21.60;99.90;;;;;;5043655;28;20049;-70
2023/07/18 08:25:00;;;;;;;97.07;92.38;;;21.70;99.90;;;;;;5032034;28;20136;-70
2023/07/18 08:27:26;;;;;;;72.32;68.55;;;21.70;99.90;;;;;;5042096;28;20107;-70
2023/07/18 08:29:51;;;;;;;63.08;59.63;;;21.80;99.90;;;;;;5026394;28;20506;-70
2023/07/18 08:32:17;;;;;;;146.82;140.27;;;22.00;99.90;;;;;;5039127;28;20493;-69
2023/07/18 08:34:43;;;;;;;165.02;157.40;;;22.20;99.90;;;;;;5038872;28;20037;-70
2023/07/18 08:37:09;;;;;;;52.70;49.83;;;22.90;99.90;;;;;;5040051;28;20051;-70
2023/07/18 08:39:35;;;;;;;46.60;44.15;;;23.20;99.90;;;;;;5045264;28;20033;-70
2023/07/18 08:42:06;;;;;;;39.42;37.13;;;23.20;99.90;;;;;;5043233;28;20409;-70
2023/07/18 08:44:32;;;;;;;56.47;53.60;;;23.60;99.90;;;;;;5043417;28;20116;-70
2023/07/18 08:47:00;;;;;;;50.42;47.55;;;24.20;99.90;;;;;;5042175;28;20045;-70
2023/07/18 08:49:29;;;;;;;68.03;64.72;;;24.00;99.90;;;;;;5025796;28;20079;-70
2023/07/18 08:51:55;;;;;;;112.40;107.13;;;23.70;99.90;;;;;;5035442;28;20072;-70
2023/07/18 08:54:21;;;;;;;204.25;195.07;;;23.30;99.90;;;;;;5045888;28;20479;-70
2023/07/18 08:56:47;;;;;;;107.38;102.55;;;23.30;99.90;;;;;;5046105;28;20102;-70
2023/07/18 08:59:13;;;;;;;63.40;60.28;;;23.30;99.90;;;;;;5045488;28;20036;-70
2023/07/18 09:01:46;;;;;;;90.32;86.00;;;23.00;99.90;;;;;;5034839;28;20048;-70
2023/07/18 09:04:12;;;;;;;59.60;56.47;;;23.20;99.90;;;;;;5039947;28;20053;-70
2023/07/18 09:06:47;;;;;;;156.07;149.10;;;23.80;99.90;;;;;;5048340;28;20041;-70
2023/07/18 09:09:21;;;;;;;137.82;131.63;;;23.80;99.90;;;;;;5041039;28;20073;-70
2023/07/18 09:11:56;;;;;;;250.65;239.35;;;23.40;99.90;;;;;;5041815;28;20493;-70
2023/07/18 09:14:27;;;;;;;148.43;141.85;;;23.20;99.90;;;;;;5043436;28;20044;-70
2023/07/18 09:16:58;;;;;;;220.30;210.30;;;23.80;99.90;;;;;;5045226;28;20087;-69
2023/07/18 09:19:37;;;;;;;158.52;151.38;;;24.30;99.90;;;;;;5047378;28;20045;-70
2023/07/18 09:22:10;;;;;;;174.00;166.25;;;24.60;99.90;;;;;;5048638;28;20040;-70
2023/07/18 09:24:37;;;;;;;123.32;117.72;;;25.10;99.90;;;;;;5037999;28;20033;-70
2023/07/18 09:27:04;;;;;;;198.50;189.65;;;25.60;99.90;;;;;;5034748;28;20044;-70
2023/07/18 09:29:30;;;;;;;282.95;270.23;;;25.90;99.90;;;;;;5043085;28;20060;-69
2023/07/18 09:31:56;;;;;;;294.52;281.23;;;25.90;98.40;;;;;;5040098;28;20044;-70
2023/07/18 09:34:23;;;;;;;321.60;306.48;;;25.90;98.80;;;;;;5032162;28;20074;-70
2023/07/18 09:36:59;;;;;;;282.50;269.73;;;25.60;98.00;;;;;;5047738;28;20099;-70
2023/07/18 09:39:26;;;;;;;260.80;248.77;;;24.90;97.30;;;;;;5047367;28;20040;-70
2023/07/18 09:41:53;;;;;;;191.80;182.93;;;24.20;99.20;;;;;;5043931;28;20083;-70
2023/07/18 09:44:19;;;;;;;289.27;275.83;;;24.20;99.90;;;;;;5027630;28;20447;-70
2023/07/18 09:46:45;;;;;;;63.80;60.47;;;24.70;99.90;;;;;;5044591;28;20045;-70
2023/07/18 09:49:10;;;;;;;49.58;46.60;;;25.00;99.90;;;;;;5049761;28;20033;-70
2023/07/18 09:51:38;;;;;;;88.32;84.03;;;25.30;99.90;;;;;;5046585;28;20033;-70
2023/07/18 09:54:06;;;;;;;53.83;50.85;;;25.50;99.90;;;;;;5047704;28;20055;-70
2023/07/18 09:56:34;;;;;;;315.33;300.55;;;25.80;99.90;;;;;;5045416;28;20436;-70
2023/07/18 09:59:04;;;;;;;350.45;333.77;;;26.30;99.90;;;;;;5047398;28;20105;-70
2023/07/18 10:01:32;;;;;;;363.38;345.63;;;26.40;98.60;;;;;;5040753;28;20204;-70
2023/07/18 10:04:04;;;;;;;365.17;347.45;;;25.90;98.10;;;;;;5030233;28;20119;-70
2023/07/18 10:06:33;;;;;;;294.15;280.20;;;25.50;98.20;;;;;;5053780;28;20056;-70
2023/07/18 10:08:59;;;;;;;257.70;245.68;;;25.00;98.80;;;;;;5040730;28;20512;-70
2023/07/18 10:11:25;;;;;;;304.25;290.27;;;24.60;99.00;;;;;;5043584;28;20401;-70
2023/07/18 10:14:05;;;;;;;195.90;187.05;;;24.30;98.60;;;;;;5042274;28;20041;-69
2023/07/18 10:16:34;;;;;;;212.25;202.27;;;24.10;99.90;;;;;;5042734;28;20037;-69
2023/07/18 10:19:19;;;;;;;203.73;194.00;;;24.40;99.90;;;;;;5042682;28;20045;-70
2023/07/18 10:21:48;;;;;;;;;;;24.80;99.70;;;;;;5023464;28;20374;-70
2023/07/18 10:24:24;;;;;;;130.40;124.43;;;25.00;99.90;;;;;;5043809;28;19960;-70
2023/07/18 10:27:15;;;;;;;162.98;155.45;;;25.30;99.90;;;;;;5044217;28;20049;-69
2023/07/18 10:30:00;;;;;;;311.25;296.63;;;25.70;99.90;;;;;;5042210;28;20051;-70
2023/07/18 10:32:33;;;;;;;245.57;234.75;;;25.90;99.20;;;;;;5027470;28;20048;-70
2023/07/18 10:35:03;;;;;;;191.23;182.45;;;25.90;97.90;;;;;;5020913;28;20048;-69
2023/07/18 10:37:30;;;;;;;235.10;224.38;;;25.50;98.10;;;;;;5019959;28;20431;-69
2023/07/18 10:39:59;;;;;;;235.73;225.20;;;25.30;98.70;;;;;;5024568;28;20130;-69
2023/07/18 10:42:28;;;;;;;235.13;224.45;;;25.40;97.50;;;;;;5043377;28;20045;-69
2023/07/18 10:44:59;;;;;;;245.23;234.27;;;25.40;97.40;;;;;;5043961;28;20134;-70
2023/07/18 10:47:27;;;;;;;202.50;193.35;;;25.40;97.70;;;;;;5043622;28;20086;-69
2023/07/18 10:49:53;;;;;;;215.63;206.10;;;25.40;98.10;;;;;;5028671;28;20521;-69
2023/07/18 10:52:20;;;;;;;195.02;186.50;;;25.20;96.80;;;;;;5045544;28;20045;-69
2023/07/18 10:54:54;;;;;;;193.05;184.35;;;24.80;96.20;;;;;;5018499;28;20045;-69
2023/07/18 10:57:25;;;;;;;236.77;226.15;;;24.40;97.00;;;;;;5037543;28;20413;-70
2023/07/18 10:59:54;;;;;;;231.88;221.38;;;24.00;97.40;;;;;;5038401;28;20299;-69
2023/07/18 11:02:21;;;;;;;178.20;169.55;;;23.80;97.70;;;;;;5037662;28;20076;-70
2023/07/18 11:04:48;;;;;;;101.95;97.10;;;24.00;99.00;;;;;;5020336;28;20045;-69
2023/07/18 11:07:14;;;;;;;236.63;226.15;;;24.30;98.30;;;;;;5040859;28;20518;-69
2023/07/18 11:09:43;;;;;;;219.05;209.32;;;24.50;97.00;;;;;;5038985;28;20047;-70
2023/07/18 11:12:23;;;;;;;181.52;173.15;;;24.80;95.70;;;;;;5042619;28;20102;-70
2023/07/18 11:14:49;;;;;;;123.63;117.93;;;24.60;96.00;;;;;;5020124;28;20041;-69
2023/07/18 11:17:18;;;;;;;117.47;112.03;;;24.40;96.90;;;;;;5038029;28;20028;-70
2023/07/18 11:19:46;;;;;;;165.25;157.77;;;24.20;97.30;;;;;;5040552;28;20463;-69
2023/07/18 11:22:16;;;;;;;145.13;138.63;;;24.00;96.80;;;;;;5037111;28;20072;-70
2023/07/18 11:24:45;;;;;;;90.78;86.32;;;23.60;97.40;;;;;;5018227;28;20405;-71
2023/07/18 11:27:22;;;;;;;163.77;156.50;;;23.50;98.30;;;;;;5019460;28;20105;-70
2023/07/18 11:29:54;;;;;;;78.00;74.35;;;23.30;98.10;;;;;;5043011;28;20374;-69
2023/07/18 11:32:49;;;;;;;94.28;89.85;;;23.10;98.60;;;;;;5027296;28;20049;-69
2023/07/18 11:35:21;;;;;;;;;;;22.90;98.50;;;;;;5036681;28;20080;-70
2023/07/18 11:37:51;;;;;;;88.38;84.10;;;22.80;98.90;;;;;;5044942;28;19967;-70
2023/07/18 11:40:25;;;;;;;58.50;55.42;;;22.90;98.00;;;;;;5028606;28;20068;-70
2023/07/18 11:42:56;;;;;;;;;;;22.70;99.00;;;;;;5059527;28;20477;-70
2023/07/18 11:45:23;;;;;;;44.95;42.72;;;22.60;99.30;;;;;;5056016;28;19967;-70
2023/07/18 11:47:57;;;;;;;37.53;35.33;;;22.60;99.10;;;;;;5041079;28;20398;-69
2023/07/18 11:50:27;;;;;;;56.80;54.05;;;22.50;99.50;;;;;;5050280;28;20075;-69
2023/07/18 11:52:53;;;;;;;67.07;63.22;;;22.40;99.80;;;;;;5030073;28;20055;-70
2023/07/18 11:55:21;;;;;;;38.92;36.72;;;22.40;99.80;;;;;;5038065;28;20090;-69
2023/07/18 11:57:50;;;;;;;52.22;49.47;;;22.40;99.70;;;;;;5038316;28;20049;-69
2023/07/18 12:00:17;;;;;;;44.67;42.35;;;22.30;99.90;;;;;;5045243;28;20037;-70
2023/07/18 12:02:44;;;;;;;49.67;47.10;;;22.40;99.90;;;;;;5035109;28;20091;-69
2023/07/18 12:05:11;;;;;;;55.28;52.30;;;22.50;99.90;;;;;;5049445;28;20119;-69